createdAt,value
2022-08-09T00:00:20.697Z,32.23
2022-08-09T00:01:20.711Z,32.07
2022-08-09T00:02:20.683Z,31.90
2022-08-09T00:04:05.454Z,32.39
2022-08-09T00:04:34.724Z,31.10
2022-08-09T00:06:18.272Z,32.87
2022-08-09T00:06:23.224Z,34.00
2022-08-09T00:07:20.601Z,34.48
2022-08-09T00:08:32.270Z,39.64
2022-08-09T00:09:21.577Z,35.61
2022-08-09T00:10:21.590Z,33.84
2022-08-09T00:11:24.401Z,34.97
2022-08-09T00:12:22.737Z,42.06
2022-08-09T00:13:20.577Z,37.54
2022-08-09T00:14:22.091Z,35.13
2022-08-09T00:15:26.515Z,40.28
2022-08-09T00:16:26.485Z,34.64
2022-08-09T00:18:09.380Z,39.64
2022-08-09T00:18:21.780Z,39.80
2022-08-09T00:19:20.486Z,35.45
2022-08-09T00:20:20.483Z,34.64
2022-08-09T00:21:20.441Z,44.47
2022-08-09T00:22:20.489Z,40.93
2022-08-09T00:23:54.806Z,37.71
2022-08-09T00:24:21.611Z,39.80
2022-08-09T00:25:23.517Z,36.58
2022-08-09T00:26:29.503Z,47.53
2022-08-09T00:27:21.405Z,33.52
2022-08-09T00:28:20.383Z,35.45
2022-08-09T00:29:39.800Z,33.52
2022-08-09T00:30:25.730Z,34.48
2022-08-09T00:31:55.749Z,33.19
2022-08-09T00:32:25.445Z,33.52
2022-08-09T00:33:32.631Z,43.67
2022-08-09T00:34:21.497Z,37.06
2022-08-09T00:35:20.339Z,32.55
2022-08-09T00:36:20.369Z,33.03
2022-08-09T00:37:20.304Z,32.39
2022-08-09T00:38:21.431Z,32.07
2022-08-09T00:40:12.078Z,40.93
2022-08-09T00:40:21.287Z,32.71
2022-08-09T00:44:10.713Z,35.45
2022-08-09T00:44:19.800Z,32.07
2022-08-09T00:44:25.069Z,35.61
2022-08-09T00:44:27.719Z,33.52
2022-08-09T00:45:21.221Z,33.35
2022-08-09T00:46:56.357Z,33.52
2022-08-09T00:47:21.212Z,31.90
2022-08-09T00:48:20.191Z,32.39
2022-08-09T00:49:20.593Z,43.51
2022-08-09T00:50:20.173Z,35.61
2022-08-09T00:51:20.205Z,33.03
2022-08-09T00:52:20.167Z,39.16
2022-08-09T00:53:23.949Z,39.48
2022-08-09T00:54:20.139Z,34.00
2022-08-09T00:56:03.915Z,42.06
2022-08-09T00:56:21.111Z,38.83
2022-08-09T00:57:24.811Z,39.96
2022-08-09T00:58:22.204Z,34.80
2022-08-09T00:59:40.928Z,38.83
2022-08-09T01:00:23.661Z,32.71
2022-08-09T01:01:20.110Z,33.19
2022-08-09T01:02:20.238Z,39.16
2022-08-09T01:03:20.082Z,34.00
2022-08-09T01:04:20.109Z,37.22
2022-08-09T01:05:21.976Z,32.39
2022-08-09T01:06:20.176Z,32.39
2022-08-09T01:07:20.015Z,36.42
2022-08-09T01:08:26.927Z,40.44
2022-08-09T01:09:21.007Z,36.42
2022-08-09T01:10:20.010Z,37.54
2022-08-09T01:11:19.980Z,34.64
2022-08-09T01:12:19.925Z,32.23
2022-08-09T01:13:22.180Z,31.74
2022-08-09T01:14:19.959Z,37.71
2022-08-09T01:15:19.931Z,42.06
2022-08-09T01:16:19.893Z,35.61
2022-08-09T01:17:19.897Z,32.87
2022-08-09T01:18:30.133Z,44.79
2022-08-09T01:19:39.691Z,35.45
2022-08-09T01:20:20.928Z,31.58
2022-08-09T01:21:19.852Z,31.58
2022-08-09T01:22:19.906Z,32.87
2022-08-09T01:24:03.677Z,31.90
2022-08-09T01:24:20.871Z,45.12
2022-08-09T01:25:19.839Z,43.34
2022-08-09T01:26:19.807Z,44.96
2022-08-09T01:27:19.839Z,51.08
2022-08-09T01:28:19.821Z,36.42
2022-08-09T01:29:19.818Z,35.45
2022-08-09T01:30:28.672Z,35.29
2022-08-09T01:32:29.572Z,35.13
2022-08-09T01:32:31.067Z,35.77
2022-08-09T01:33:20.750Z,42.06
2022-08-09T01:34:19.791Z,45.60
2022-08-09T01:35:37.658Z,33.03
2022-08-09T01:36:20.727Z,32.87
2022-08-09T01:37:42.742Z,40.44
2022-08-09T01:38:20.784Z,40.28
2022-08-09T01:39:19.721Z,31.74
2022-08-09T01:40:23.329Z,31.58
2022-08-09T01:41:25.674Z,31.58
2022-08-09T01:42:19.650Z,45.92
2022-08-09T01:43:19.702Z,36.90
2022-08-09T01:44:19.676Z,32.39
2022-08-09T01:45:19.666Z,32.07
2022-08-09T01:46:25.266Z,39.16
2022-08-09T01:47:20.584Z,37.06
2022-08-09T01:48:24.209Z,33.68
2022-08-09T01:49:21.119Z,32.39
2022-08-09T01:50:19.583Z,32.87
2022-08-09T01:51:22.862Z,36.09
2022-08-09T01:52:19.538Z,38.83
2022-08-09T01:53:21.532Z,37.54
2022-08-09T01:54:19.577Z,32.23
2022-08-09T01:55:20.509Z,33.52
2022-08-09T01:56:19.489Z,32.39
2022-08-09T01:57:20.545Z,33.68
2022-08-09T01:58:24.021Z,42.54
2022-08-09T01:59:19.547Z,39.64
2022-08-09T02:00:35.675Z,32.87
2022-08-09T02:01:30.439Z,32.39
2022-08-09T02:02:20.505Z,33.52
2022-08-09T02:03:19.442Z,31.26
2022-08-09T02:04:19.471Z,31.90
2022-08-09T02:05:19.420Z,32.23
2022-08-09T02:06:20.400Z,33.84
2022-08-09T02:08:35.100Z,44.79
2022-08-09T02:08:41.307Z,33.35
2022-08-09T02:09:20.407Z,35.45
2022-08-09T02:10:19.366Z,35.61
2022-08-09T02:11:20.404Z,37.38
2022-08-09T02:12:31.209Z,34.48
2022-08-09T02:13:20.354Z,34.00
2022-08-09T02:14:25.605Z,33.68
2022-08-09T02:15:20.317Z,34.32
2022-08-09T02:16:19.302Z,33.35
2022-08-09T02:17:59.286Z,32.39
2022-08-09T02:18:20.471Z,38.03
2022-08-09T02:19:19.275Z,34.16
2022-08-09T02:20:26.373Z,48.50
2022-08-09T02:21:22.299Z,43.67
2022-08-09T02:22:31.496Z,44.63
2022-08-09T02:23:20.265Z,35.13
2022-08-09T02:24:26.475Z,37.54
2022-08-09T02:25:19.280Z,40.12
2022-08-09T02:26:27.193Z,50.60
2022-08-09T02:27:20.193Z,51.72
2022-08-09T02:28:20.170Z,41.57
2022-08-09T02:29:19.220Z,40.44
2022-08-09T02:30:19.209Z,45.60
2022-08-09T02:31:19.148Z,35.77
2022-08-09T02:45:39.016Z,34.97
2022-08-09T02:46:38.936Z,41.09
2022-08-09T02:47:57.999Z,35.93
2022-08-09T02:48:39.921Z,39.16
2022-08-09T02:49:41.295Z,39.32
2022-08-09T02:50:38.921Z,41.41
2022-08-09T02:51:40.497Z,41.09
2022-08-09T02:52:39.561Z,51.08
2022-08-09T02:53:38.870Z,47.05
2022-08-09T02:54:54.282Z,47.86
2022-08-09T02:55:53.729Z,49.15
2022-08-09T02:56:41.037Z,45.60
2022-08-09T02:57:40.283Z,49.95
2022-08-09T02:58:40.970Z,41.73
2022-08-09T02:59:40.282Z,43.18
2022-08-09T03:00:57.951Z,45.60
2022-08-09T03:01:58.586Z,42.70
2022-08-09T03:02:58.699Z,49.63
2022-08-09T03:04:17.011Z,52.21
2022-08-09T03:04:40.972Z,35.93
2022-08-09T03:05:39.913Z,36.09
2022-08-09T03:06:39.975Z,49.15
2022-08-09T03:07:39.903Z,46.41
2022-08-09T03:08:40.091Z,47.53
2022-08-09T03:09:42.918Z,49.63
2022-08-09T03:10:39.849Z,52.21
2022-08-09T03:12:06.232Z,46.57
2022-08-09T03:12:40.850Z,53.50
2022-08-09T03:13:43.394Z,53.98
2022-08-09T03:14:39.817Z,48.34
2022-08-09T03:15:40.582Z,54.30
2022-08-09T03:16:44.773Z,43.51
2022-08-09T03:17:40.766Z,40.44
2022-08-09T03:18:39.767Z,53.17
2022-08-09T03:19:58.232Z,51.40
2022-08-09T03:20:40.747Z,51.40
2022-08-09T03:21:39.925Z,47.86
2022-08-09T03:22:42.269Z,52.05
2022-08-09T03:23:39.719Z,47.86
2022-08-09T03:24:51.789Z,50.60
2022-08-09T03:25:59.408Z,49.15
2022-08-09T03:26:45.264Z,53.17
2022-08-09T03:27:45.385Z,48.50
2022-08-09T03:28:40.650Z,50.60
2022-08-09T03:29:57.185Z,50.76
2022-08-09T03:30:40.602Z,52.21
2022-08-09T03:31:42.368Z,50.27
2022-08-09T03:32:40.597Z,54.30
2022-08-09T03:33:54.457Z,48.66
2022-08-09T03:34:40.635Z,51.08
2022-08-09T03:36:11.842Z,48.02
2022-08-09T03:36:40.623Z,48.66
2022-08-09T03:37:55.649Z,49.15
2022-08-09T03:38:42.153Z,46.73
2022-08-09T03:39:39.642Z,55.75
2022-08-09T03:40:40.557Z,53.66
2022-08-09T03:41:48.633Z,51.40
2022-08-09T03:42:42.826Z,53.50
2022-08-09T03:43:39.557Z,46.41
2022-08-09T03:44:39.505Z,50.43
2022-08-09T03:46:04.727Z,57.69
2022-08-09T03:46:40.489Z,50.92
2022-08-09T03:47:39.900Z,50.92
2022-08-09T03:48:51.053Z,53.33
2022-08-09T03:49:40.454Z,50.76
2022-08-09T03:50:40.420Z,58.49
2022-08-09T03:51:55.222Z,53.98
2022-08-09T03:52:40.428Z,50.76
2022-08-09T03:53:39.379Z,57.20
2022-08-09T03:54:39.404Z,54.30
2022-08-09T03:55:40.713Z,54.30
2022-08-09T03:56:41.356Z,53.82
2022-08-09T03:57:44.759Z,55.11
2022-08-09T03:58:40.332Z,54.79
2022-08-09T03:59:53.296Z,55.43
2022-08-09T04:00:40.354Z,47.86
2022-08-09T04:01:39.326Z,55.91
2022-08-09T04:02:39.296Z,52.85
2022-08-09T04:03:46.171Z,56.24
2022-08-09T04:04:40.285Z,54.14
2022-08-09T04:05:40.669Z,54.62
2022-08-09T04:06:39.257Z,50.11
2022-08-09T04:07:52.602Z,52.05
2022-08-09T04:08:40.255Z,59.14
2022-08-09T04:09:48.111Z,53.82
2022-08-09T04:10:40.276Z,58.65
2022-08-09T04:11:39.185Z,54.46
2022-08-09T04:12:39.210Z,50.43
2022-08-09T04:14:36.585Z,51.56
2022-08-09T04:15:00.202Z,51.88
2022-08-09T04:16:17.359Z,56.07
2022-08-09T04:16:40.158Z,53.17
2022-08-09T04:17:39.429Z,53.98
2022-08-09T04:18:39.156Z,54.62
2022-08-09T04:19:50.793Z,56.40
2022-08-09T04:20:40.102Z,53.01
2022-08-09T04:21:40.296Z,57.36
2022-08-09T04:22:41.244Z,57.52
2022-08-09T04:23:40.082Z,51.08
2022-08-09T04:24:40.085Z,53.17
2022-08-09T04:25:39.083Z,56.40
2022-08-09T04:26:39.054Z,57.36
2022-08-09T04:27:39.035Z,56.56
2022-08-09T04:28:42.318Z,56.88
2022-08-09T04:29:40.028Z,51.72
2022-08-09T04:30:44.814Z,53.17
2022-08-09T04:31:46.809Z,53.98
2022-08-09T04:32:40.211Z,53.66
2022-08-09T04:33:52.712Z,58.33
2022-08-09T04:34:40.045Z,52.85
2022-08-09T04:35:39.958Z,57.36
2022-08-09T04:36:43.637Z,56.07
2022-08-09T04:37:45.135Z,57.36
2022-08-09T04:38:39.953Z,51.56
2022-08-09T04:39:40.849Z,58.65
2022-08-09T04:40:38.882Z,55.75
2022-08-09T04:41:43.602Z,58.17
2022-08-09T04:42:39.864Z,55.11
2022-08-09T04:43:38.979Z,54.30
2022-08-09T04:44:39.913Z,57.52
2022-08-09T04:45:53.913Z,57.52
2022-08-09T04:46:58.561Z,54.30
2022-08-09T04:47:59.374Z,55.27
2022-08-09T04:48:39.821Z,52.21
2022-08-09T04:49:52.805Z,54.30
2022-08-09T04:50:39.868Z,53.17
2022-08-09T04:51:38.826Z,52.85
2022-08-09T04:52:38.801Z,51.40
2022-08-09T04:53:38.775Z,56.56
2022-08-09T04:54:38.786Z,55.11
2022-08-09T04:55:42.170Z,55.43
2022-08-09T04:56:39.727Z,51.72
2022-08-09T04:57:59.150Z,54.79
2022-08-09T04:58:39.714Z,56.07
2022-08-09T04:59:38.717Z,51.08
2022-08-09T05:00:38.722Z,51.40
2022-08-09T05:01:38.734Z,53.66
2022-08-09T05:02:38.697Z,55.75
2022-08-09T05:03:42.800Z,53.17
2022-08-09T05:04:39.808Z,54.62
2022-08-09T05:05:52.525Z,54.46
2022-08-09T05:06:39.706Z,56.56
2022-08-09T05:07:38.643Z,55.11
2022-08-09T05:08:38.802Z,55.75
2022-08-09T05:09:45.553Z,55.75
2022-08-09T05:10:39.723Z,51.40
2022-08-09T05:11:38.605Z,54.79
2022-08-09T05:12:38.977Z,53.98
2022-08-09T05:13:39.167Z,49.63
2022-08-09T05:14:38.589Z,49.31
2022-08-09T05:15:47.736Z,52.69
2022-08-09T05:16:58.341Z,56.56
2022-08-09T05:18:39.623Z,51.56
2022-08-09T05:18:57.603Z,55.11
2022-08-09T05:19:44.971Z,52.69
2022-08-09T05:20:39.516Z,54.30
2022-08-09T05:21:52.550Z,52.21
2022-08-09T05:23:50.534Z,52.69
2022-08-09T05:23:55.606Z,57.20
2022-08-09T05:24:39.450Z,53.66
2022-08-09T05:25:38.444Z,52.85
2022-08-09T05:26:45.582Z,54.62
2022-08-09T05:27:46.557Z,54.79
2022-08-09T05:28:39.423Z,54.95
2022-08-09T05:29:38.413Z,51.56
2022-08-09T05:30:38.543Z,50.60
2022-08-09T05:31:46.628Z,55.27
2022-08-09T05:32:39.386Z,52.85
2022-08-09T05:33:42.410Z,55.11
2022-08-09T05:34:38.370Z,54.46
2022-08-09T05:35:46.753Z,55.43
2022-08-09T05:36:39.323Z,53.33
2022-08-09T05:37:47.524Z,54.14
2022-08-09T05:38:39.342Z,51.56
2022-08-09T05:39:43.867Z,52.85
2022-08-09T05:40:40.160Z,54.46
2022-08-09T05:41:38.289Z,53.50
2022-08-09T05:42:38.320Z,51.72
2022-08-09T05:43:38.394Z,53.33
2022-08-09T05:44:38.351Z,54.79
2022-08-09T05:45:52.559Z,53.66
2022-08-09T05:46:39.260Z,55.91
2022-08-09T05:47:51.543Z,48.18
2022-08-09T05:48:39.238Z,51.88
2022-08-09T05:50:23.696Z,47.70
2022-08-09T05:50:51.085Z,50.76
2022-08-09T05:51:46.055Z,52.69
2022-08-09T05:52:39.182Z,54.79
2022-08-09T05:53:42.500Z,49.95
2022-08-09T05:54:40.182Z,52.05
2022-08-09T05:55:38.175Z,54.62
2022-08-09T05:56:38.179Z,48.66
2022-08-09T05:57:57.109Z,53.17
2022-08-09T05:58:39.148Z,54.30
2022-08-09T05:59:38.142Z,46.41
2022-08-09T06:00:38.150Z,54.46
2022-08-09T06:01:42.374Z,54.79
2022-08-09T06:02:38.162Z,55.75
2022-08-09T06:03:43.931Z,54.79
2022-08-09T06:04:44.725Z,49.95
2022-08-09T06:05:56.926Z,52.05
2022-08-09T06:06:42.610Z,53.17
2022-08-09T06:07:39.016Z,53.66
2022-08-09T06:08:38.116Z,53.17
2022-08-09T06:09:54.483Z,52.05
2022-08-09T06:10:39.009Z,53.66
2022-08-09T06:11:40.946Z,48.66
2022-08-09T06:12:38.977Z,48.66
2022-08-09T06:13:37.983Z,52.69
2022-08-09T06:14:37.985Z,47.53
2022-08-09T06:15:38.012Z,50.11
2022-08-09T06:16:37.960Z,52.85
2022-08-09T06:17:39.117Z,53.50
2022-08-09T06:18:37.903Z,46.25
2022-08-09T06:19:37.911Z,43.34
2022-08-09T06:20:37.903Z,52.69
2022-08-09T06:21:50.383Z,45.44
2022-08-09T06:22:38.869Z,52.37
2022-08-09T06:23:55.140Z,46.73
2022-08-09T06:24:38.890Z,50.76
2022-08-09T06:25:37.861Z,47.70
2022-08-09T06:26:37.818Z,49.79
2022-08-09T06:27:42.329Z,52.21
2022-08-09T06:28:37.820Z,46.57
2022-08-09T06:29:48.114Z,52.69
2022-08-09T06:30:38.814Z,51.72
2022-08-09T06:31:40.599Z,49.15
2022-08-09T06:32:53.311Z,53.33
2022-08-09T06:33:40.602Z,48.50
2022-08-09T06:34:37.816Z,47.53
2022-08-09T06:35:57.656Z,51.56
2022-08-09T06:36:43.986Z,53.17
2022-08-09T06:37:52.779Z,51.56
2022-08-09T06:38:38.717Z,51.72
2022-08-09T06:39:57.837Z,51.40
2022-08-09T06:40:38.756Z,47.37
2022-08-09T06:42:08.143Z,50.43
2022-08-09T06:42:44.847Z,48.34
2022-08-09T06:43:38.657Z,47.53
2022-08-09T06:44:37.672Z,43.34
2022-08-09T06:46:06.057Z,45.44
2022-08-09T06:46:40.068Z,53.01
2022-08-09T06:47:41.762Z,50.11
2022-08-09T06:48:37.644Z,41.57
2022-08-09T06:50:11.631Z,46.57
2022-08-09T06:50:38.591Z,45.28
2022-08-09T06:51:39.080Z,49.31
2022-08-09T06:52:37.555Z,49.95
2022-08-09T06:53:38.429Z,49.47
2022-08-09T06:54:37.545Z,48.34
2022-08-09T06:55:37.572Z,50.43
2022-08-09T06:56:37.520Z,47.37
2022-08-09T06:58:01.157Z,47.53
2022-08-09T07:00:49.453Z,49.15
2022-08-09T07:00:50.168Z,49.47
2022-08-09T07:00:52.658Z,49.79
2022-08-09T07:01:59.470Z,49.63
2022-08-09T07:02:38.543Z,48.18
2022-08-09T07:03:39.549Z,52.05
2022-08-09T07:04:38.421Z,51.88
2022-08-09T07:05:53.809Z,46.57
2022-08-09T07:06:38.408Z,46.41
2022-08-09T07:07:59.833Z,48.18
2022-08-09T07:08:39.443Z,42.86
2022-08-09T07:09:55.954Z,50.76
2022-08-09T07:10:38.373Z,48.82
2022-08-09T07:11:52.177Z,50.60
2022-08-09T07:12:38.462Z,49.79
2022-08-09T07:13:45.315Z,50.11
2022-08-09T07:14:38.358Z,45.60
2022-08-09T07:16:36.113Z,45.76
2022-08-09T07:16:42.476Z,48.66
2022-08-09T07:17:39.458Z,46.25
2022-08-09T07:18:38.725Z,46.41
2022-08-09T07:19:37.314Z,41.89
2022-08-09T07:20:39.685Z,47.05
2022-08-09T07:21:38.272Z,50.92
2022-08-09T07:22:42.036Z,48.02
2022-08-09T07:23:56.476Z,51.56
2022-08-09T07:24:40.782Z,48.82
2022-08-09T07:25:42.604Z,48.82
2022-08-09T07:26:37.251Z,51.24
2022-08-09T07:27:42.690Z,45.60
2022-08-09T07:28:38.218Z,46.73
2022-08-09T07:29:42.880Z,50.11
2022-08-09T07:30:37.160Z,50.11
2022-08-09T07:31:38.617Z,52.21
2022-08-09T07:32:38.367Z,49.63
2022-08-09T07:33:52.458Z,48.18
2022-08-09T07:34:38.157Z,46.89
2022-08-09T07:35:53.331Z,49.63
2022-08-09T07:36:38.121Z,47.37
2022-08-09T07:37:42.819Z,45.44
2022-08-09T07:38:38.061Z,46.89
2022-08-09T07:39:41.469Z,44.31
2022-08-09T07:41:10.102Z,46.57
2022-08-09T07:41:39.107Z,47.37
2022-08-09T07:42:37.139Z,48.98
2022-08-09T07:43:41.374Z,48.34
2022-08-09T07:44:52.179Z,50.11
2022-08-09T07:45:40.238Z,48.66
2022-08-09T07:46:37.026Z,41.73
2022-08-09T07:47:49.224Z,45.12
2022-08-09T07:48:39.257Z,44.63
2022-08-09T07:50:04.679Z,48.50
2022-08-09T07:50:37.975Z,48.82
2022-08-09T07:52:05.173Z,49.63
2022-08-09T07:52:38.074Z,45.76
2022-08-09T07:54:07.836Z,48.02
2022-08-09T07:54:37.951Z,47.70
2022-08-09T07:55:41.537Z,46.08
2022-08-09T07:56:38.809Z,49.63
2022-08-09T07:57:37.946Z,47.70
2022-08-09T07:58:37.880Z,50.27
2022-08-09T07:59:52.227Z,47.53
2022-08-09T08:00:38.102Z,46.41
2022-08-09T08:01:37.902Z,48.18
2022-08-09T08:02:42.252Z,46.73
2022-08-09T08:03:37.866Z,50.76
2022-08-09T08:04:37.329Z,50.11
2022-08-09T08:05:39.286Z,44.79
2022-08-09T08:06:55.970Z,48.50
2022-08-09T08:08:43.231Z,46.25
2022-08-09T08:08:59.673Z,48.66
2022-08-09T08:09:51.471Z,50.43
2022-08-09T08:10:37.793Z,49.15
2022-08-09T08:12:27.260Z,50.76
2022-08-09T08:12:43.663Z,45.92
2022-08-09T08:13:41.281Z,49.63
2022-08-09T08:14:37.748Z,46.25
2022-08-09T08:15:37.623Z,48.18
2022-08-09T08:16:36.705Z,47.05
2022-08-09T08:17:53.275Z,49.63
2022-08-09T08:18:37.680Z,48.34
2022-08-09T08:19:36.693Z,45.92
2022-08-09T08:20:36.729Z,43.51
2022-08-09T08:21:39.818Z,45.44
2022-08-09T08:22:37.657Z,45.92
2022-08-09T08:23:36.636Z,47.53
2022-08-09T08:24:40.575Z,43.99
2022-08-09T08:25:44.028Z,47.21
2022-08-09T08:26:42.006Z,47.37
2022-08-09T08:27:40.535Z,50.43
2022-08-09T08:28:36.624Z,43.83
2022-08-09T08:29:39.580Z,48.34
2022-08-09T08:30:39.096Z,49.15
2022-08-09T08:31:39.615Z,48.18
2022-08-09T08:32:41.682Z,48.50
2022-08-09T08:33:49.600Z,48.18
2022-08-09T08:34:37.524Z,49.95
2022-08-09T08:35:58.137Z,44.31
2022-08-09T08:36:37.599Z,45.76
2022-08-09T08:37:41.561Z,45.44
2022-08-09T08:38:37.538Z,44.47
2022-08-09T08:39:39.682Z,48.66
2022-08-09T08:40:37.492Z,46.41
2022-08-09T08:41:42.015Z,44.79
2022-08-09T08:42:37.459Z,47.70
2022-08-09T08:43:36.430Z,45.12
2022-08-09T08:44:36.429Z,46.41
2022-08-09T08:45:37.474Z,45.44
2022-08-09T08:47:00.114Z,46.08
2022-08-09T08:47:38.515Z,50.43
2022-08-09T08:48:37.435Z,44.79
2022-08-09T08:49:46.869Z,47.37
2022-08-09T08:50:37.389Z,48.82
2022-08-09T08:51:40.304Z,45.76
2022-08-09T08:52:59.361Z,46.89
2022-08-09T08:53:38.362Z,48.82
2022-08-09T08:54:37.362Z,50.76
2022-08-09T08:55:36.360Z,46.41
2022-08-09T08:56:36.332Z,49.79
2022-08-09T08:57:37.517Z,45.60
2022-08-09T08:58:36.297Z,48.98
2022-08-09T08:59:47.076Z,48.82
2022-08-09T09:00:37.695Z,49.31
2022-08-09T09:01:51.949Z,50.76
2022-08-09T09:02:37.609Z,48.18
2022-08-09T09:03:37.721Z,40.61
2022-08-09T09:04:47.298Z,45.60
2022-08-09T09:05:58.802Z,43.34
2022-08-09T09:06:37.203Z,45.12
2022-08-09T09:07:36.737Z,48.82
2022-08-09T09:08:41.085Z,45.60
2022-08-09T09:10:01.817Z,44.96
2022-08-09T09:10:37.191Z,48.02
2022-08-09T09:11:38.443Z,41.89
2022-08-09T09:12:36.392Z,45.12
2022-08-09T09:13:55.429Z,43.99
2022-08-09T09:14:37.144Z,44.96
2022-08-09T09:15:36.143Z,46.41
2022-08-09T09:16:36.143Z,48.02
2022-08-09T09:17:49.131Z,44.79
2022-08-09T09:18:37.102Z,46.25
2022-08-09T09:19:41.256Z,44.79
2022-08-09T09:20:38.127Z,46.25
2022-08-09T09:21:43.391Z,45.76
2022-08-09T09:22:37.301Z,46.41
2022-08-09T09:23:38.080Z,47.70
2022-08-09T09:24:37.974Z,45.28
2022-08-09T09:26:02.187Z,43.51
2022-08-09T09:26:37.027Z,47.37
2022-08-09T09:28:05.530Z,44.79
2022-08-09T09:29:01.732Z,45.76
2022-08-09T09:30:09.331Z,45.76
2022-08-09T09:30:40.629Z,44.96
2022-08-09T09:32:03.897Z,46.73
2022-08-09T09:32:37.295Z,49.47
2022-08-09T09:33:44.800Z,47.05
2022-08-09T09:34:36.985Z,46.41
2022-08-09T09:35:35.949Z,46.89
2022-08-09T09:36:35.916Z,44.63
2022-08-09T09:37:36.867Z,45.44
2022-08-09T09:38:36.572Z,46.89
2022-08-09T09:39:54.591Z,45.76
2022-08-09T09:40:37.004Z,43.67
2022-08-09T09:41:48.781Z,44.63
2022-08-09T09:42:37.001Z,49.63
2022-08-09T09:43:41.185Z,48.02
2022-08-09T09:44:36.952Z,45.76
2022-08-09T09:45:56.950Z,45.12
2022-08-09T09:46:51.380Z,49.95
2022-08-09T09:47:47.774Z,50.43
2022-08-09T09:48:37.946Z,44.63
2022-08-09T09:50:13.886Z,43.99
2022-08-09T09:50:36.816Z,48.82
2022-08-09T09:51:37.978Z,44.63
2022-08-09T09:52:37.589Z,47.70
2022-08-09T09:53:57.411Z,45.76
2022-08-09T09:54:36.784Z,44.79
2022-08-09T09:55:35.779Z,48.34
2022-08-09T09:56:35.764Z,43.51
2022-08-09T09:58:03.578Z,43.34
2022-08-09T09:58:37.358Z,49.31
2022-08-09T09:59:35.913Z,44.63
2022-08-09T10:00:35.718Z,45.44
2022-08-09T10:01:38.287Z,42.54
2022-08-09T10:02:36.672Z,41.57
2022-08-09T10:03:35.686Z,46.25
2022-08-09T10:04:35.713Z,45.12
2022-08-09T10:06:04.011Z,46.25
2022-08-09T10:06:36.642Z,47.21
2022-08-09T10:07:35.669Z,43.34
2022-08-09T10:08:42.461Z,45.28
2022-08-09T10:09:36.595Z,40.77
2022-08-09T10:10:35.610Z,47.53
2022-08-09T10:11:54.028Z,39.64
2022-08-09T10:12:37.595Z,47.53
2022-08-09T10:13:43.264Z,46.57
2022-08-09T10:14:36.720Z,47.21
2022-08-09T10:16:09.010Z,44.63
2022-08-09T10:16:57.223Z,44.31
2022-08-09T10:17:50.965Z,45.44
2022-08-09T10:18:36.552Z,48.82
2022-08-09T10:19:35.517Z,46.25
2022-08-09T10:20:44.886Z,46.57
2022-08-09T10:21:36.524Z,42.86
2022-08-09T10:22:35.559Z,46.89
2022-08-09T10:23:35.448Z,44.47
2022-08-09T10:24:36.144Z,47.53
2022-08-09T10:26:07.185Z,49.47
2022-08-09T10:26:36.470Z,46.41
2022-08-09T10:27:38.643Z,38.35
2022-08-09T10:28:36.411Z,39.64
2022-08-09T10:30:56.807Z,43.83
2022-08-09T10:32:27.571Z,45.12
2022-08-09T10:32:48.411Z,43.51
2022-08-09T10:34:08.038Z,47.37
2022-08-09T10:34:36.400Z,44.79
2022-08-09T10:35:35.402Z,49.63
2022-08-09T10:36:35.590Z,48.18
2022-08-09T10:37:38.351Z,45.76
2022-08-09T10:38:56.326Z,45.44
2022-08-09T10:39:40.615Z,47.37
2022-08-09T10:40:40.960Z,48.02
2022-08-09T10:41:37.307Z,45.12
2022-08-09T10:42:35.353Z,48.98
2022-08-09T10:43:46.772Z,49.15
2022-08-09T10:44:36.260Z,47.21
2022-08-09T10:45:35.556Z,42.38
2022-08-09T10:46:47.626Z,47.37
2022-08-09T10:48:19.545Z,48.34
2022-08-09T10:48:37.049Z,47.86
2022-08-09T10:49:50.899Z,43.34
2022-08-09T10:50:36.212Z,45.28
2022-08-09T10:51:41.254Z,47.21
2022-08-09T10:52:36.510Z,47.86
2022-08-09T10:53:39.318Z,45.44
2022-08-09T10:54:35.178Z,44.96
2022-08-09T10:55:35.636Z,43.83
2022-08-09T10:56:36.169Z,45.44
2022-08-09T10:57:37.618Z,42.22
2022-08-09T10:58:37.136Z,46.89
2022-08-09T10:59:53.731Z,47.86
2022-08-09T11:00:36.097Z,43.02
2022-08-09T11:03:13.150Z,46.41
2022-08-09T11:03:13.309Z,46.73
2022-08-09T11:03:49.828Z,42.38
2022-08-09T11:04:36.141Z,43.67
2022-08-09T11:05:36.859Z,45.76
2022-08-09T11:06:35.077Z,44.47
2022-08-09T11:07:56.793Z,45.92
2022-08-09T11:08:43.649Z,41.57
2022-08-09T11:09:37.367Z,41.89
2022-08-09T11:10:35.996Z,43.34
2022-08-09T11:11:35.025Z,39.64
2022-08-09T11:12:36.517Z,41.09
2022-08-09T11:13:50.272Z,48.66
2022-08-09T11:14:36.005Z,45.44
2022-08-09T11:15:38.493Z,45.44
2022-08-09T11:16:37.263Z,44.63
2022-08-09T11:17:34.935Z,49.95
2022-08-09T11:18:36.107Z,44.47
2022-08-09T11:20:11.837Z,44.31
2022-08-09T11:20:35.911Z,45.76
2022-08-09T11:21:34.945Z,40.61
2022-08-09T11:22:36.068Z,39.16
2022-08-09T11:23:34.946Z,44.79
2022-08-09T11:24:34.862Z,47.70
2022-08-09T11:25:44.904Z,42.38
2022-08-09T11:26:35.842Z,51.72
2022-08-09T11:28:03.165Z,47.53
2022-08-09T11:28:38.697Z,46.25
2022-08-09T11:30:05.023Z,46.41
2022-08-09T11:30:36.751Z,44.63
2022-08-09T11:31:36.538Z,46.25
2022-08-09T11:32:34.891Z,47.70
2022-08-09T11:33:34.780Z,46.57
2022-08-09T11:34:35.076Z,43.02
2022-08-09T11:35:47.161Z,42.54
2022-08-09T11:36:36.870Z,44.63
2022-08-09T11:37:41.129Z,48.66
2022-08-09T11:38:41.567Z,45.60
2022-08-09T11:39:38.615Z,47.37
2022-08-09T11:40:34.736Z,44.79
2022-08-09T11:41:37.814Z,45.44
2022-08-09T11:42:34.981Z,44.79
2022-08-09T11:43:34.675Z,44.15
2022-08-09T11:44:34.759Z,46.41
2022-08-09T11:45:37.676Z,44.63
2022-08-09T11:46:35.680Z,45.28
2022-08-09T11:47:35.203Z,45.92
2022-08-09T11:48:35.972Z,44.15
2022-08-09T11:49:42.840Z,47.86
2022-08-09T11:50:56.581Z,47.37
2022-08-09T11:52:56.628Z,44.31
2022-08-09T11:53:02.583Z,44.96
2022-08-09T11:53:59.037Z,46.73
2022-08-09T11:54:35.669Z,45.12
2022-08-09T11:55:39.862Z,40.61
2022-08-09T11:56:47.556Z,39.80
2022-08-09T11:58:00.033Z,44.96
2022-08-09T11:58:35.534Z,46.73
2022-08-09T11:59:34.540Z,45.92
2022-08-09T12:00:34.563Z,46.57
2022-08-09T12:02:15.973Z,46.41
2022-08-09T12:02:51.014Z,47.21
2022-08-09T12:03:57.536Z,42.86
2022-08-09T12:04:37.531Z,46.08
2022-08-09T12:05:37.957Z,44.96
2022-08-09T12:06:36.454Z,46.08
2022-08-09T12:07:41.796Z,45.44
2022-08-09T12:08:35.454Z,45.60
2022-08-09T12:09:34.469Z,42.38
2022-08-09T12:10:39.423Z,46.08
2022-08-09T12:11:44.547Z,46.41
2022-08-09T12:12:36.435Z,46.73
2022-08-09T12:14:09.346Z,44.47
2022-08-09T12:14:36.748Z,44.15
2022-08-09T12:15:49.264Z,45.60
2022-08-09T12:16:38.572Z,44.63
2022-08-09T12:17:43.642Z,41.89
2022-08-09T12:18:35.365Z,44.96
2022-08-09T12:19:35.334Z,42.86
2022-08-09T12:20:34.390Z,45.60
2022-08-09T12:21:38.852Z,43.34
2022-08-09T12:22:34.568Z,42.38
2022-08-09T12:23:56.271Z,44.79
2022-08-09T12:24:35.347Z,47.70
2022-08-09T12:25:37.160Z,43.34
2022-08-09T12:26:34.750Z,46.41
2022-08-09T12:29:13.272Z,41.41
2022-08-09T12:29:15.304Z,44.47
2022-08-09T12:29:52.448Z,45.44
2022-08-09T12:30:39.318Z,48.98
2022-08-09T12:31:59.333Z,48.98
2022-08-09T12:32:35.379Z,44.96
2022-08-09T12:33:51.073Z,43.02
2022-08-09T12:34:35.203Z,43.67
2022-08-09T12:35:40.078Z,43.34
2022-08-09T12:36:36.301Z,50.60
2022-08-09T12:37:44.254Z,45.12
2022-08-09T12:38:38.609Z,47.53
2022-08-09T12:39:34.195Z,44.47
2022-08-09T12:40:34.182Z,47.86
2022-08-09T12:41:39.603Z,45.92
2022-08-09T12:42:36.299Z,48.66
2022-08-09T12:44:05.712Z,48.34
2022-08-09T12:44:37.435Z,48.82
2022-08-09T12:45:38.835Z,47.05
2022-08-09T12:46:36.225Z,45.28
2022-08-09T12:47:40.688Z,46.57
2022-08-09T12:48:37.394Z,47.37
2022-08-09T12:49:34.055Z,45.44
2022-08-09T12:50:34.050Z,49.79
2022-08-09T12:52:01.540Z,47.05
2022-08-09T12:53:07.807Z,45.44
2022-08-09T12:53:38.656Z,43.83
2022-08-09T12:54:36.002Z,48.02
2022-08-09T12:56:14.001Z,47.37
2022-08-09T12:56:43.698Z,50.27
2022-08-09T12:57:35.850Z,45.92
2022-08-09T12:58:34.224Z,45.60
2022-08-09T12:59:57.888Z,46.25
2022-08-09T13:00:34.925Z,45.92
2022-08-09T13:01:34.058Z,48.98
2022-08-09T13:02:34.169Z,48.98
2022-08-09T13:03:57.346Z,39.80
2022-08-09T13:04:37.786Z,48.82
2022-08-09T13:05:50.766Z,47.21
2022-08-09T13:06:35.717Z,44.79